Time;durP1;ratioP1;P1;durP2;ratioP2;P2;SDS_P1;SDS_P2;PMS_P1;PMS_P2;Temp;Humidity;BMP_temperature;BMP_pressure;BME280_temperature;BME280_humidity;BME280_pressure;Samples;Min_cycle;Max_cycle;Signal;HPM_P1;HPM_P2
2023/06/12 00:00:56;;;;;;;;;;;14.40;74.60;;;;;;5023683;28;20020;-77
2023/06/12 00:03:25;;;;;;;;;;;14.40;75.90;;;;;;5019190;28;20646;-77
2023/06/12 00:06:01;;;;;;;;;;;14.40;75.30;;;;;;5028236;28;19933;-77
2023/06/12 00:08:29;;;;;;;;;;;14.40;75.60;;;;;;5022246;28;19929;-77
2023/06/12 00:10:56;;;;;;;;;;;14.40;74.90;;;;;;5006921;28;20019;-77
2023/06/12 00:13:23;;;;;;;;;;;14.40;75.00;;;;;;5009197;28;20432;-77
2023/06/12 00:15:49;;;;;;;;;;;14.30;74.80;;;;;;5001746;28;20294;-77
2023/06/12 00:18:17;;;;;;;;;;;14.30;75.80;;;;;;5002244;28;19933;-77
2023/06/12 00:20:44;;;;;;;;;;;14.30;75.10;;;;;;5018809;28;19930;-78
2023/06/12 00:23:11;;;;;;;;;;;14.30;75.10;;;;;;5022657;28;20030;-78
2023/06/12 00:25:39;;;;;;;;;;;14.30;75.40;;;;;;5009565;28;19968;-78
2023/06/12 00:28:06;;;;;;;;;;;14.20;75.90;;;;;;5026391;28;20612;-78
2023/06/12 00:30:32;;;;;;;;;;;14.30;75.90;;;;;;5023619;28;19933;-77
2023/06/12 00:33:00;;;;;;;;;;;14.20;76.00;;;;;;5026680;28;19929;-78
2023/06/12 00:35:27;;;;;;;;;;;14.20;75.10;;;;;;5022422;28;19929;-77
2023/06/12 00:37:55;;;;;;;;;;;14.20;75.60;;;;;;5009572;28;19929;-77
2023/06/12 00:40:22;;;;;;;;;;;14.20;76.10;;;;;;5022937;28;20019;-77
2023/06/12 00:42:49;;;;;;;;;;;14.20;75.40;;;;;;5007438;28;20286;-77
2023/06/12 00:45:18;;;;;;;;;;;14.20;75.80;;;;;;5021763;28;19939;-77
2023/06/12 00:47:45;;;;;;;;;;;14.10;76.40;;;;;;5025576;28;19968;-77
2023/06/12 00:50:13;;;;;;;;;;;14.10;75.80;;;;;;5023858;28;19964;-77
2023/06/12 00:52:45;;;;;;;;;;;14.10;76.10;;;;;;5023251;28;19996;-78
2023/06/12 00:55:13;;;;;;;;;;;14.10;75.90;;;;;;5025960;28;19932;-78
2023/06/12 00:57:41;;;;;;;;;;;14.10;75.90;;;;;;5012707;28;19945;-78
2023/06/12 01:00:12;;;;;;;;;;;14.10;76.20;;;;;;5024647;28;19936;-78
2023/06/12 01:03:04;;;;;;;;;;;14.10;75.80;;;;;;5023242;28;19937;-78
2023/06/12 01:05:34;;;;;;;;;;;14.10;76.40;;;;;;5025272;28;19933;-78
2023/06/12 01:08:16;;;;;;;;;;;14.10;76.20;;;;;;5020471;28;20585;-78
2023/06/12 01:10:51;;;;;;;;;;;14.10;76.10;;;;;;5027073;28;19929;-78
2023/06/12 01:13:18;;;;;;;;;;;14.10;76.90;;;;;;5021590;28;19995;-77
2023/06/12 01:15:45;;;;;;;;;;;14.10;76.30;;;;;;5027303;28;19933;-77
2023/06/12 01:18:12;;;;;;;;;;;14.10;76.90;;;;;;5018584;28;19933;-78
2023/06/12 01:20:40;;;;;;;;;;;14.00;76.40;;;;;;5007093;28;19929;-77
2023/06/12 01:23:20;;;;;;;;;;;14.00;75.80;;;;;;5032593;28;19972;-77
2023/06/12 01:25:50;;;;;;;;;;;14.00;77.10;;;;;;5013918;28;20468;-77
2023/06/12 01:28:23;;;;;;;;;;;14.00;76.80;;;;;;5024577;28;19929;-78
2023/06/12 01:30:54;;;;;;;;;;;13.90;76.80;;;;;;5022660;28;19929;-78
2023/06/12 01:33:30;;;;;;;;;;;13.90;77.30;;;;;;5001144;28;19933;-78
2023/06/12 01:35:58;;;;;;;;;;;13.80;77.30;;;;;;5002540;28;19983;-78
2023/06/12 01:38:27;;;;;;;;;;;13.80;78.20;;;;;;5001103;28;19963;-78
2023/06/12 01:40:54;;;;;;;;;;;13.70;77.80;;;;;;5005392;28;19956;-77
2023/06/12 01:43:22;;;;;;;;;;;13.70;77.70;;;;;;5016177;28;19933;-78
2023/06/12 01:45:49;;;;;;;;;;;13.70;78.70;;;;;;5024649;28;20030;-77
2023/06/12 01:48:16;;;;;;;;;;;13.60;78.60;;;;;;5023753;28;20727;-78
2023/06/12 01:50:44;;;;;;;;;;;13.60;79.10;;;;;;5008475;28;20707;-77
2023/06/12 01:53:13;;;;;;;;;;;13.60;78.60;;;;;;5026913;28;19929;-77
2023/06/12 01:55:41;;;;;;;;;;;13.50;78.90;;;;;;5020074;28;19935;-77
2023/06/12 01:58:08;;;;;;;;;;;13.50;79.40;;;;;;5007461;28;19929;-78
2023/06/12 02:00:38;;;;;;;;;;;13.50;79.00;;;;;;5013444;28;19975;-78
2023/06/12 02:03:06;;;;;;;;;;;13.40;79.40;;;;;;5024223;28;19957;-78
2023/06/12 02:05:33;;;;;;;;;;;13.30;80.50;;;;;;5008012;28;19929;-78
2023/06/12 02:07:59;;;;;;;;;;;13.30;80.30;;;;;;5026506;28;19929;-77
2023/06/12 02:10:26;;;;;;;;;;;13.30;80.20;;;;;;5012426;28;19973;-78
2023/06/12 02:12:54;;;;;;;;;;;13.20;80.60;;;;;;5010845;28;19933;-78
2023/06/12 02:15:20;;;;;;;;;;;13.20;80.30;;;;;;5025474;28;19995;-78
2023/06/12 02:17:47;;;;;;;;;;;13.20;80.60;;;;;;5026000;28;19990;-77
2023/06/12 02:20:14;;;;;;;;;;;13.10;81.00;;;;;;5010500;28;20668;-77
2023/06/12 02:22:41;;;;;;;;;;;13.10;80.80;;;;;;5020575;28;19929;-78
2023/06/12 02:25:08;;;;;;;;;;;13.10;81.40;;;;;;5024175;28;20373;-78
2023/06/12 02:27:35;;;;;;;;;;;13.10;81.10;;;;;;5017277;28;20028;-78
2023/06/12 02:30:01;;;;;;;;;;;13.10;81.60;;;;;;4996356;28;20456;-77
2023/06/12 02:32:28;;;;;;;;;;;13.10;82.10;;;;;;5005134;28;20003;-78
2023/06/12 02:34:55;;;;;;;;;;;13.10;81.80;;;;;;5024273;28;20445;-78
2023/06/12 02:37:22;;;;;;;;;;;13.10;81.50;;;;;;5025070;28;19972;-77
2023/06/12 02:39:49;;;;;;;;;;;13.00;81.50;;;;;;5005801;28;19929;-78
2023/06/12 02:42:16;;;;;;;;;;;13.00;81.00;;;;;;5015222;28;19930;-78
2023/06/12 02:44:42;;;;;;;;;;;13.00;81.00;;;;;;5020628;28;19929;-78
2023/06/12 02:47:09;;;;;;;;;;;13.00;80.90;;;;;;5036799;28;19929;-77
2023/06/12 02:49:38;;;;;;;;;;;13.00;80.90;;;;;;5033580;28;19925;-77
2023/06/12 02:52:05;;;;;;;;;;;12.90;81.10;;;;;;5019605;28;19932;-78
2023/06/12 02:54:33;;;;;;;;;;;12.90;81.00;;;;;;5027479;28;19936;-78
2023/06/12 02:56:59;;;;;;;;;;;12.90;81.10;;;;;;5025101;28;19929;-78
2023/06/12 02:59:26;;;;;;;;;;;12.90;81.40;;;;;;5026319;28;19933;-78
2023/06/12 03:01:53;;;;;;;;;;;12.90;81.20;;;;;;5021602;28;20013;-78
2023/06/12 03:04:20;;;;;;;;;;;13.00;81.40;;;;;;5029572;28;20028;-77
2023/06/12 03:06:48;;;;;;;;;;;13.00;81.20;;;;;;5030907;28;19929;-78
2023/06/12 03:09:18;;;;;;;;;;;13.00;81.10;;;;;;5026739;28;20012;-77
2023/06/12 03:11:45;;;;;;;;;;;13.00;81.00;;;;;;5025703;28;19979;-78
2023/06/12 03:14:12;;;;;;;;;;;13.00;80.90;;;;;;5025901;28;20012;-77
2023/06/12 03:16:42;;;;;;;;;;;13.10;81.00;;;;;;5006089;28;19936;-78
2023/06/12 03:19:08;;;;;;;;;;;13.10;80.90;;;;;;5023626;28;19932;-78
2023/06/12 03:21:36;;;;;;;;;;;13.10;81.40;;;;;;5025426;28;19995;-78
2023/06/12 03:24:04;;;;;;;;;;;13.10;81.20;;;;;;5012884;28;20635;-78
2023/06/12 03:26:33;;;;;;;;;;;13.20;81.50;;;;;;5030944;28;20027;-77
2023/06/12 03:29:01;;;;;;;;;;;13.20;81.30;;;;;;5026980;28;20007;-78
2023/06/12 03:31:28;;;;;;;;;;;13.20;81.20;;;;;;5008228;28;19929;-78
2023/06/12 03:33:55;;;;;;;;;;;13.20;80.90;;;;;;5013195;28;20615;-78
2023/06/12 03:36:25;;;;;;;;;;;13.20;80.60;;;;;;5004161;28;20007;-78
2023/06/12 03:38:52;;;;;;;;;;;13.20;80.30;;;;;;5008179;28;19995;-78
2023/06/12 03:41:20;;;;;;;;;;;13.20;80.90;;;;;;5024400;28;19933;-78
2023/06/12 03:43:47;;;;;;;;;;;13.20;81.00;;;;;;5019886;28;20475;-78
2023/06/12 03:46:14;;;;;;;;;;;13.20;81.00;;;;;;5030351;28;20525;-78
2023/06/12 03:48:40;;;;;;;;;;;13.30;81.30;;;;;;5019037;28;19960;-78
2023/06/12 03:51:07;;;;;;;;;;;13.30;80.20;;;;;;5020533;28;19991;-78
2023/06/12 03:53:34;;;;;;;;;;;13.30;81.00;;;;;;5019203;28;19941;-77
2023/06/12 03:56:01;;;;;;;;;;;13.30;80.70;;;;;;5019697;28;20015;-78
2023/06/12 03:58:28;;;;;;;;;;;13.30;80.60;;;;;;5005317;28;19979;-78
2023/06/12 04:00:54;;;;;;;;;;;13.40;80.90;;;;;;4998915;28;19935;-78
2023/06/12 04:03:24;;;;;;;;;;;13.40;80.60;;;;;;5006577;28;19931;-78
2023/06/12 04:05:51;;;;;;;;;;;13.40;80.20;;;;;;5026675;28;19925;-78
2023/06/12 04:08:19;;;;;;;;;;;13.50;79.60;;;;;;5018582;28;19926;-78
2023/06/12 04:10:46;;;;;;;;;;;13.60;79.80;;;;;;5011917;28;19936;-78
2023/06/12 04:13:13;;;;;;;;;;;13.60;79.40;;;;;;5026636;28;19979;-79
2023/06/12 04:15:39;;;;;;;;;;;13.70;79.30;;;;;;5008643;28;19983;-78
2023/06/12 04:18:09;;;;;;;;;;;13.70;79.60;;;;;;5020602;28;19956;-78
2023/06/12 04:20:38;;;;;;;;;;;13.70;80.30;;;;;;5012193;28;19936;-78
2023/06/12 04:23:11;;;;;;;;;;;13.80;79.30;;;;;;5024170;28;20028;-78
2023/06/12 04:25:38;;;;;;;;;;;13.80;79.50;;;;;;5026106;28;19960;-77
2023/06/12 04:28:07;;;;;;;;;;;13.80;78.70;;;;;;5021090;28;20058;-78
2023/06/12 04:30:35;;;;;;;;;;;13.90;78.10;;;;;;5022037;28;20832;-78
2023/06/12 04:33:03;;;;;;;;;;;13.90;78.70;;;;;;5019633;28;20829;-78
2023/06/12 04:35:33;;;;;;;;;;;14.00;77.30;;;;;;5022847;28;19929;-78
2023/06/12 04:37:59;;;;;;;;;;;14.00;78.10;;;;;;5020957;28;20684;-78
2023/06/12 04:40:26;;;;;;;;;;;14.10;77.40;;;;;;5027923;28;19935;-78
2023/06/12 04:42:56;;;;;;;;;;;14.10;77.20;;;;;;5022550;28;19933;-77
2023/06/12 04:45:23;;;;;;;;;;;14.20;77.80;;;;;;5026779;28;20544;-76
2023/06/12 04:47:51;;;;;;;;;;;14.30;77.90;;;;;;5017043;28;19929;-80
2023/06/12 04:50:18;;;;;;;;;;;14.30;77.00;;;;;;5008414;28;19933;-80
2023/06/12 04:52:47;;;;;;;;;;;14.40;77.60;;;;;;5029703;28;20596;-82
2023/06/12 04:55:20;;;;;;;;;;;14.40;75.90;;;;;;5026036;28;20145;-79
2023/06/12 04:57:52;;;;;;;;;;;14.40;76.20;;;;;;5027347;28;19925;-78
2023/06/12 05:00:19;;;;;;;;;;;14.50;76.50;;;;;;5025851;28;19929;-79
2023/06/12 05:02:46;;;;;;;;;;;14.50;76.40;;;;;;5026282;28;19968;-81
2023/06/12 05:05:13;;;;;;;;;;;14.60;75.90;;;;;;5022362;28;19929;-78
2023/06/12 05:07:41;;;;;;;;;;;14.70;75.80;;;;;;5007992;28;19996;-80
2023/06/12 05:10:08;;;;;;;;;;;14.70;75.60;;;;;;5026923;28;20366;-80
2023/06/12 05:12:35;;;;;;;;;;;14.80;75.30;;;;;;5008870;28;19940;-79
2023/06/12 05:15:02;;;;;;;;;;;14.90;74.50;;;;;;5023953;28;19937;-79
2023/06/12 05:17:28;;;;;;;;;;;15.00;75.00;;;;;;5028853;28;19929;-80
2023/06/12 05:19:55;;;;;;;;;;;15.00;74.60;;;;;;5028812;28;19959;-79
2023/06/12 05:22:22;;;;;;;;;;;15.10;72.80;;;;;;5025565;28;21157;-79
2023/06/12 05:24:49;;;;;;;;;;;15.20;73.90;;;;;;5027044;28;19929;-81
2023/06/12 05:27:16;;;;;;;;;;;15.20;72.50;;;;;;5008144;28;20003;-81
2023/06/12 05:29:42;;;;;;;;;;;15.30;72.80;;;;;;5019690;28;19936;-79
2023/06/12 05:32:09;;;;;;;;;;;15.40;72.70;;;;;;5026972;28;19933;-83
2023/06/12 05:34:36;;;;;;;;;;;15.50;72.40;;;;;;5027699;28;19925;-79
2023/06/12 05:37:03;;;;;;;;;;;15.60;71.80;;;;;;5030051;28;20355;-80
2023/06/12 05:39:30;;;;;;;;;;;15.70;71.40;;;;;;5019168;28;19932;-79
2023/06/12 05:41:57;;;;;;;;;;;15.70;70.00;;;;;;5012418;28;19999;-79
2023/06/12 05:44:24;;;;;;;;;;;15.80;69.30;;;;;;5005086;28;19975;-78
2023/06/12 05:46:51;;;;;;;;;;;15.90;69.70;;;;;;5008659;28;20325;-78
2023/06/12 05:49:18;;;;;;;;;;;15.90;68.30;;;;;;5014937;28;19929;-78
2023/06/12 05:51:48;;;;;;;;;;;16.10;65.80;;;;;;5036626;28;19925;-79
2023/06/12 05:54:15;;;;;;;;;;;16.20;66.80;;;;;;5029422;28;19929;-78
2023/06/12 05:56:42;;;;;;;;;;;16.30;65.90;;;;;;5039461;28;19925;-78
2023/06/12 05:59:08;;;;;;;;;;;16.40;65.30;;;;;;5014550;28;19936;-78
2023/06/12 06:01:35;;;;;;;;;;;16.50;64.80;;;;;;5008586;28;19964;-78
2023/06/12 06:04:02;;;;;;;;;;;16.60;64.50;;;;;;5023380;28;19939;-78
2023/06/12 06:06:30;;;;;;;;;;;16.80;65.50;;;;;;5019642;28;19931;-78
2023/06/12 06:08:59;;;;;;;;;;;16.90;63.70;;;;;;5009789;28;19932;-78
2023/06/12 06:11:28;;;;;;;;;;;17.20;64.60;;;;;;5020701;28;19960;-78
2023/06/12 06:13:54;;;;;;;;;;;17.40;63.00;;;;;;5016810;28;19929;-78
2023/06/12 06:16:21;;;;;;;;;;;17.80;62.80;;;;;;5006281;28;20329;-78
2023/06/12 06:18:48;;;;;;;;;;;18.10;63.10;;;;;;5023995;28;19996;-79
2023/06/12 06:21:15;;;;;;;;;;;18.40;61.10;;;;;;5026496;28;19929;-78
2023/06/12 06:23:42;;;;;;;;;;;18.80;60.30;;;;;;5024646;28;20712;-78
2023/06/12 06:26:09;;;;;;;;;;;19.10;58.90;;;;;;5007553;28;19925;-78
2023/06/12 06:28:36;;;;;;;;;;;19.40;56.60;;;;;;5024630;28;19929;-79
2023/06/12 06:31:06;;;;;;;;;;;19.70;56.60;;;;;;5008335;28;19936;-78
2023/06/12 06:33:33;;;;;;;;;;;20.00;56.60;;;;;;5035592;28;19999;-78
2023/06/12 06:36:00;;;;;;;;;;;20.40;55.80;;;;;;5026266;28;19977;-78
2023/06/12 06:38:27;;;;;;;;;;;20.60;53.90;;;;;;5019323;28;20251;-78
2023/06/12 06:40:53;;;;;;;;;;;20.90;54.30;;;;;;5024702;28;20604;-78
2023/06/12 06:43:20;;;;;;;;;;;21.10;51.20;;;;;;5006959;28;19983;-78
2023/06/12 06:45:47;;;;;;;;;;;21.40;51.50;;;;;;5024177;28;19929;-79
2023/06/12 06:48:14;;;;;;;;;;;21.70;51.60;;;;;;5024833;28;19925;-78
2023/06/12 06:50:41;;;;;;;;;;;22.00;48.60;;;;;;5007941;28;20024;-78
2023/06/12 06:53:08;;;;;;;;;;;22.30;49.50;;;;;;5022751;28;19929;-78
2023/06/12 06:55:35;;;;;;;;;;;22.60;48.50;;;;;;5020718;28;19936;-78
2023/06/12 06:58:02;;;;;;;;;;;22.80;47.40;;;;;;5034553;28;19966;-78
2023/06/12 07:00:29;;;;;;;;;;;23.10;47.30;;;;;;5030724;28;20301;-78
2023/06/12 07:02:56;;;;;;;;;;;23.30;45.10;;;;;;5033714;28;20019;-78
2023/06/12 07:05:23;;;;;;;;;;;23.50;44.80;;;;;;5012460;28;19941;-78
2023/06/12 07:07:51;;;;;;;;;;;23.80;44.50;;;;;;5008340;28;19979;-79
2023/06/12 07:10:28;;;;;;;;;;;24.00;43.60;;;;;;5011417;28;19929;-78
2023/06/12 07:12:58;;;;;;;;;;;24.30;43.70;;;;;;5031468;28;19982;-78
2023/06/12 07:15:25;;;;;;;;;;;24.50;43.10;;;;;;5027262;28;19985;-78
2023/06/12 07:17:52;;;;;;;;;;;24.70;42.40;;;;;;5033135;28;19960;-78
2023/06/12 07:20:19;;;;;;;;;;;24.90;42.50;;;;;;5015290;28;19975;-78
2023/06/12 07:22:46;;;;;;;;;;;25.10;41.70;;;;;;5026289;28;19932;-78
2023/06/12 07:25:14;;;;;;;;;;;25.40;41.80;;;;;;5007134;28;20346;-78
2023/06/12 07:27:41;;;;;;;;;;;25.60;40.40;;;;;;5033695;28;20369;-78
2023/06/12 07:30:08;;;;;;;;;;;25.80;39.50;;;;;;5022308;28;19928;-78
2023/06/12 07:32:35;;;;;;;;;;;25.90;39.10;;;;;;5037525;28;20389;-79
2023/06/12 07:35:02;;;;;;;;;;;26.10;40.10;;;;;;5030020;28;19929;-79
2023/06/12 07:37:35;;;;;;;;;;;26.40;39.20;;;;;;5021758;28;19929;-79
2023/06/12 07:40:04;;;;;;;;;;;26.60;38.90;;;;;;5026615;28;19933;-79
2023/06/12 07:42:32;;;;;;;;;;;26.80;36.70;;;;;;5030706;28;20027;-78
2023/06/12 07:44:59;;;;;;;;;;;27.00;37.40;;;;;;5012301;28;19983;-78
2023/06/12 07:47:26;;;;;;;;;;;27.20;37.30;;;;;;5028618;28;20297;-79
2023/06/12 07:49:53;;;;;;;;;;;27.30;37.10;;;;;;5029198;28;19968;-78
2023/06/12 07:52:20;;;;;;;;;;;27.50;36.70;;;;;;5019792;28;19929;-78
2023/06/12 07:54:48;;;;;;;;;;;27.70;34.80;;;;;;5011507;28;19929;-78
2023/06/12 07:57:14;;;;;;;;;;;27.90;34.60;;;;;;5022790;28;20047;-78
2023/06/12 07:59:42;;;;;;;;;;;28.20;34.20;;;;;;5028173;28;20004;-78
2023/06/12 08:02:09;;;;;;;;;;;28.50;32.60;;;;;;5001528;28;20004;-78
2023/06/12 08:04:40;;;;;;;;;;;28.80;33.70;;;;;;5024726;28;19988;-78
2023/06/12 08:07:12;;;;;;;;;;;28.90;33.50;;;;;;5025584;28;19929;-78
2023/06/12 08:09:42;;;;;;;;;;;29.10;31.70;;;;;;5031069;28;19968;-78
2023/06/12 08:12:12;;;;;;;;;;;29.40;31.90;;;;;;5028438;28;20832;-78
2023/06/12 08:14:39;;;;;;;;;;;29.70;31.70;;;;;;5026177;28;19929;-78
2023/06/12 08:17:06;;;;;;;;;;;29.80;30.80;;;;;;5025330;28;19929;-78
2023/06/12 08:19:34;;;;;;;;;;;30.00;31.20;;;;;;5023650;28;19930;-78
2023/06/12 08:22:01;;;;;;;;;;;30.00;31.80;;;;;;5027073;28;19943;-79
2023/06/12 08:24:30;;;;;;;;;;;30.20;31.20;;;;;;5020891;28;19979;-78
2023/06/12 08:26:58;;;;;;;;;;;30.40;31.40;;;;;;5005096;28;19925;-78
2023/06/12 08:29:25;;;;;;;;;;;30.60;30.70;;;;;;5014957;28;19933;-79
2023/06/12 08:31:52;;;;;;;;;;;30.70;30.40;;;;;;5035699;28;19969;-78
2023/06/12 08:34:18;;;;;;;;;;;30.50;29.90;;;;;;5031556;28;19959;-78
2023/06/12 08:36:45;;;;;;;;;;;30.10;29.70;;;;;;5029397;28;19972;-78
2023/06/12 08:39:13;;;;;;;;;;;30.20;29.20;;;;;;5019145;28;19983;-78
2023/06/12 08:41:42;;;;;;;;;;;30.40;29.50;;;;;;5022640;28;19928;-78
2023/06/12 08:44:09;;;;;;;;;;;30.70;30.30;;;;;;5026932;28;20059;-78
2023/06/12 08:46:36;;;;;;;;;;;30.80;30.20;;;;;;5002060;28;19964;-78
2023/06/12 08:49:04;;;;;;;;;;;31.00;29.70;;;;;;5011512;28;19929;-78
2023/06/12 08:51:32;;;;;;;;;;;31.00;29.70;;;;;;5017157;28;19929;-78
2023/06/12 08:54:01;;;;;;;;;;;31.00;28.70;;;;;;5014607;28;20631;-78
2023/06/12 08:56:27;;;;;;;;;;;31.10;29.60;;;;;;5026112;28;19984;-78
2023/06/12 08:58:54;;;;;;;;;;;31.30;29.40;;;;;;5025010;28;19975;-79
2023/06/12 09:01:21;;;;;;;;;;;31.50;29.60;;;;;;5009675;28;19929;-79
2023/06/12 09:03:52;;;;;;;;;;;31.70;29.00;;;;;;5025177;28;20011;-78
2023/06/12 09:06:21;;;;;;;;;;;31.80;28.90;;;;;;5008506;28;20732;-78
2023/06/12 09:08:48;;;;;;;;;;;31.70;28.40;;;;;;5028681;28;19929;-78
2023/06/12 09:11:15;;;;;;;;;;;31.80;29.10;;;;;;5008838;28;20029;-78
2023/06/12 09:13:42;;;;;;;;;;;32.00;28.80;;;;;;5026105;28;19933;-78
2023/06/12 09:16:12;;;;;;;;;;;32.00;28.90;;;;;;5025151;28;20247;-78
2023/06/12 09:18:51;;;;;;;;;;;32.00;28.30;;;;;;5022424;28;19968;-78
2023/06/12 09:21:22;;;;;;;;;;;32.10;29.20;;;;;;5012532;28;19937;-78
2023/06/12 09:23:54;;;;;;;;;;;32.40;29.00;;;;;;5008383;28;19964;-78
2023/06/12 09:26:24;;;;;;;;;;;32.60;29.50;;;;;;5019691;28;19929;-78
2023/06/12 09:28:51;;;;;;;;;;;32.90;29.30;;;;;;5021977;28;20346;-78
2023/06/12 09:31:18;;;;;;;;;;;33.10;28.50;;;;;;5030509;28;19946;-78
2023/06/12 09:33:45;;;;;;;;;;;32.60;28.90;;;;;;5013529;28;19968;-78
2023/06/12 09:36:12;;;;;;;;;;;32.90;29.20;;;;;;5014192;28;20311;-78
2023/06/12 09:38:39;;;;;;;;;;;33.10;27.10;;;;;;5024112;28;19929;-78
2023/06/12 09:41:07;;;;;;;;;;;33.00;28.80;;;;;;5023074;28;19929;-78
2023/06/12 09:43:35;;;;;;;;;;;32.90;28.20;;;;;;5021471;28;19933;-78
2023/06/12 09:46:03;;;;;;;;;;;33.00;27.10;;;;;;5028571;28;20767;-78
2023/06/12 09:48:34;;;;;;;;;;;33.00;28.50;;;;;;5016463;28;20393;-77
2023/06/12 09:51:04;;;;;;;;;;;33.00;27.10;;;;;;5020848;28;19929;-78
2023/06/12 09:53:34;;;;;;;;;;;33.10;28.00;;;;;;5019202;28;19929;-78
2023/06/12 09:56:03;;;;;;;;;;;33.20;27.10;;;;;;5014983;28;19929;-77
2023/06/12 09:58:32;;;;;;;;;;;32.70;27.70;;;;;;4994914;28;20047;-78
2023/06/12 10:01:03;;;;;;;;;;;32.70;27.40;;;;;;5027895;28;20023;-77
2023/06/12 10:03:30;;;;;;;;;;;32.70;27.70;;;;;;5015598;28;19929;-77
2023/06/12 10:05:57;;;;;;;;;;;32.10;27.90;;;;;;5003939;28;19944;-77
2023/06/12 10:08:24;;;;;;;;;;;32.10;28.10;;;;;;5021732;28;19972;-77
2023/06/12 10:10:52;;;;;;;;;;;32.10;28.50;;;;;;5017192;28;20595;-77
2023/06/12 10:13:19;;;;;;;;;;;32.30;28.20;;;;;;5016865;28;20016;-77
2023/06/12 10:15:47;;;;;;;;;;;32.60;27.10;;;;;;4997828;28;19935;-77
2023/06/12 10:18:15;;;;;;;;;;;32.70;28.30;;;;;;5003338;28;19929;-77
2023/06/12 10:20:42;;;;;;;;;;;33.10;27.90;;;;;;5013112;28;19925;-77
2023/06/12 10:23:09;;;;;;;;;;;33.20;28.10;;;;;;5032815;28;19929;-77
2023/06/12 10:25:36;;;;;;;;;;;32.80;27.70;;;;;;5024427;28;20281;-77
2023/06/12 10:28:03;;;;;;;;;;;32.80;27.10;;;;;;5024043;28;20301;-77
2023/06/12 10:30:30;;;;;;;;;;;32.70;27.10;;;;;;5018390;28;19933;-77
2023/06/12 10:33:05;;;;;;;;;;;32.50;27.80;;;;;;5010009;28;19941;-77
2023/06/12 10:35:32;;;;;;;;;;;32.80;28.40;;;;;;5023767;28;19936;-77
2023/06/12 10:37:59;;;;;;;;;;;32.40;28.70;;;;;;5016965;28;20008;-77
2023/06/12 10:40:28;;;;;;;;;;;32.60;28.90;;;;;;5004169;28;19929;-77
2023/06/12 10:43:13;;;;;;;;;;;32.40;28.00;;;;;;5016627;28;19926;-77
2023/06/12 10:45:50;;;;;;;;;;;32.10;27.90;;;;;;5023350;28;20608;-77
2023/06/12 10:48:19;;;;;;;;;;;32.20;28.10;;;;;;5023509;28;19926;-77
2023/06/12 10:50:49;;;;;;;;;;;32.20;28.80;;;;;;5023933;28;19929;-78
2023/06/12 10:53:29;;;;;;;;;;;32.40;27.20;;;;;;5022424;28;19968;-77
2023/06/12 10:56:06;;;;;;;;;;;32.10;27.30;;;;;;5023747;28;19935;-78
2023/06/12 10:58:37;;;;;;;;;;;31.80;27.00;;;;;;5019291;28;20322;-77
2023/06/12 11:01:13;;;;;;;;;;;31.40;26.90;;;;;;5031019;28;20043;-77
2023/06/12 11:03:44;;;;;;;;;;;31.40;27.20;;;;;;5017979;28;19929;-77
2023/06/12 11:06:15;;;;;;;;;;;31.60;27.90;;;;;;5030525;28;19987;-77
2023/06/12 11:08:45;;;;;;;;;;;31.40;27.70;;;;;;5024790;28;19940;-77
2023/06/12 11:11:13;;;;;;;;;;;31.40;27.20;;;;;;5031913;28;19929;-77
2023/06/12 11:13:43;;;;;;;;;;;31.30;27.70;;;;;;5027792;28;20020;-77
2023/06/12 11:16:13;;;;;;;;;;;31.30;27.70;;;;;;5026626;28;20522;-77
2023/06/12 11:18:40;;;;;;;;;;;31.40;27.60;;;;;;5024529;28;19929;-77
2023/06/12 11:21:09;;;;;;;;;;;31.50;27.30;;;;;;5001213;28;19995;-77
2023/06/12 11:23:38;;;;;;;;;;;32.00;27.80;;;;;;5009260;28;19971;-77
2023/06/12 11:26:07;;;;;;;;;;;32.10;27.20;;;;;;5018879;28;19929;-77
2023/06/12 11:28:34;;;;;;;;;;;31.90;26.60;;;;;;5033799;28;19929;-77
2023/06/12 11:31:02;;;;;;;;;;;32.00;27.10;;;;;;5015401;28;19929;-77
2023/06/12 11:33:38;;;;;;;;;;;31.90;27.20;;;;;;5014593;28;19936;-77
2023/06/12 11:36:05;;;;;;;;;;;31.80;26.60;;;;;;5022544;28;19933;-77
2023/06/12 11:38:32;;;;;;;;;;;32.10;27.30;;;;;;5021815;28;19931;-77
2023/06/12 11:41:03;;;;;;;;;;;32.10;26.80;;;;;;5027016;28;19936;-77
2023/06/12 11:43:30;;;;;;;;;;;32.20;27.10;;;;;;5029330;28;19929;-76
2023/06/12 11:46:01;;;;;;;;;;;32.40;26.90;;;;;;5027319;28;19935;-77
2023/06/12 11:48:30;;;;;;;;;;;32.40;26.90;;;;;;5027127;28;19933;-77
2023/06/12 11:51:00;;;;;;;;;;;32.20;28.00;;;;;;5025486;28;20011;-76
2023/06/12 11:53:30;;;;;;;;;;;32.00;27.70;;;;;;5027679;28;19932;-77
2023/06/12 11:55:59;;;;;;;;;;;32.20;27.80;;;;;;5016099;28;19925;-77
2023/06/12 11:58:33;;;;;;;;;;;31.90;27.50;;;;;;5013772;28;19929;-77
2023/06/12 12:01:13;;;;;;;;;;;31.30;27.10;;;;;;5012312;28;20344;-77
2023/06/12 12:03:46;;;;;;;;;;;30.90;28.00;;;;;;5036808;28;20555;-77
2023/06/12 12:06:17;;;;;;;;;;;30.70;28.10;;;;;;5025903;28;19929;-77
2023/06/12 12:08:44;;;;;;;;;;;30.70;28.80;;;;;;5003927;28;20008;-77
2023/06/12 12:11:20;;;;;;;;;;;31.20;27.80;;;;;;5024498;28;19929;-76
2023/06/12 12:13:52;;;;;;;;;;;31.20;28.00;;;;;;5023753;28;20031;-77
2023/06/12 12:16:24;;;;;;;;;;;31.40;28.40;;;;;;5009359;28;19929;-76
2023/06/12 12:18:51;;;;;;;;;;;31.50;28.30;;;;;;5001053;28;19972;-77
2023/06/12 12:21:18;;;;;;;;;;;31.60;29.00;;;;;;5021139;28;19928;-71
2023/06/12 12:23:45;;;;;;;;;;;31.80;27.80;;;;;;5017324;28;19998;-73
2023/06/12 12:26:13;;;;;;;;;;;31.80;27.60;;;;;;5011685;28;19929;-72
2023/06/12 12:28:42;;;;;;;;;;;31.90;27.40;;;;;;5022508;28;20466;-71
2023/06/12 12:31:08;;;;;;;;;;;31.70;28.40;;;;;;5030320;28;19925;-73
2023/06/12 12:33:35;;;;;;;;;;;31.70;27.00;;;;;;5023601;28;20406;-71
2023/06/12 12:36:02;;;;;;;;;;;31.70;27.90;;;;;;5018323;28;19930;-72
2023/06/12 12:38:29;;;;;;;;;;;31.70;27.20;;;;;;5018105;28;19929;-72
2023/06/12 12:40:56;;;;;;;;;;;31.70;26.60;;;;;;5023667;28;19929;-72
2023/06/12 12:43:23;;;;;;;;;;;31.70;27.20;;;;;;5026719;28;19936;-73
2023/06/12 12:45:50;;;;;;;;;;;31.60;27.50;;;;;;5034981;28;20011;-71
2023/06/12 12:48:16;;;;;;;;;;;31.50;26.00;;;;;;5017733;28;20011;-71
2023/06/12 12:50:43;;;;;;;;;;;31.30;26.30;;;;;;5012065;28;19929;-71
2023/06/12 12:53:30;;;;;;;;;;;31.20;27.70;;;;;;5008084;28;19930;-71
2023/06/12 12:55:57;;;;;;;;;;;31.50;27.00;;;;;;5025986;28;19929;-71
2023/06/12 12:58:24;;;;;;;;;;;31.50;27.60;;;;;;5016147;28;20023;-72
2023/06/12 13:00:51;;;;;;;;;;;31.40;26.70;;;;;;5027011;28;19936;-72
2023/06/12 13:03:18;;;;;;;;;;;31.50;27.50;;;;;;5012878;28;20535;-73
2023/06/12 13:05:46;;;;;;;;;;;31.30;27.20;;;;;;5020753;28;19975;-76
2023/06/12 13:08:13;;;;;;;;;;;31.40;27.90;;;;;;5013576;28;19929;-75
2023/06/12 13:10:41;;;;;;;;;;;31.60;27.30;;;;;;5024214;28;19929;-73
2023/06/12 13:13:08;;;;;;;;;;;31.60;27.40;;;;;;5017000;28;19983;-73
2023/06/12 13:15:35;;;;;;;;;;;31.60;26.80;;;;;;5000668;28;19929;-73
2023/06/12 13:18:02;;;;;;;;;;;31.50;27.50;;;;;;5023491;28;19941;-73
2023/06/12 13:20:29;;;;;;;;;;;31.10;27.10;;;;;;5022727;28;19933;-73
2023/06/12 13:22:55;;;;;;;;;;;31.10;26.90;;;;;;5022193;28;20378;-72
2023/06/12 13:25:22;;;;;;;;;;;31.00;27.40;;;;;;5005393;28;19929;-72
2023/06/12 13:27:49;;;;;;;;;;;31.00;26.80;;;;;;5003340;28;20030;-72
2023/06/12 13:30:16;;;;;;;;;;;30.90;26.90;;;;;;5005444;28;19929;-72
2023/06/12 13:32:42;;;;;;;;;;;30.70;26.70;;;;;;5013692;28;20018;-72
2023/06/12 13:35:09;;;;;;;;;;;30.60;27.00;;;;;;5027850;28;19936;-72
2023/06/12 13:37:37;;;;;;;;;;;30.80;26.80;;;;;;5032095;28;19929;-71
2023/06/12 13:40:06;;;;;;;;;;;30.70;26.60;;;;;;5008264;28;20651;-72
2023/06/12 13:42:34;;;;;;;;;;;30.40;27.00;;;;;;5012365;28;19996;-72
2023/06/12 13:45:04;;;;;;;;;;;30.50;27.60;;;;;;5033470;28;19939;-72
2023/06/12 13:47:31;;;;;;;;;;;30.40;27.70;;;;;;5036112;28;20023;-72
2023/06/12 13:49:58;;;;;;;;;;;30.40;26.80;;;;;;5029921;28;19940;-72
2023/06/12 13:52:26;;;;;;;;;;;30.50;26.40;;;;;;5025045;28;20016;-72
2023/06/12 13:54:53;;;;;;;;;;;30.30;26.30;;;;;;5015158;28;19949;-71
2023/06/12 13:57:19;;;;;;;;;;;30.60;26.60;;;;;;5019551;28;19948;-72
2023/06/12 13:59:46;;;;;;;;;;;30.70;27.00;;;;;;4999956;28;19929;-72
2023/06/12 14:02:13;;;;;;;;;;;30.40;27.20;;;;;;5019245;28;20386;-71
2023/06/12 14:04:40;;;;;;;;;;;30.50;28.00;;;;;;5015948;28;19960;-72
2023/06/12 14:07:08;;;;;;;;;;;30.60;27.00;;;;;;5020665;28;19929;-73
2023/06/12 14:09:36;;;;;;;;;;;30.40;26.80;;;;;;5012661;28;19951;-73
2023/06/12 14:12:03;;;;;;;;;;;30.50;27.20;;;;;;5026439;28;20036;-71
2023/06/12 14:14:30;;;;;;;;;;;30.60;26.60;;;;;;5024311;28;19984;-72
2023/06/12 14:16:57;;;;;;;;;;;30.50;27.10;;;;;;5024158;28;19970;-72
2023/06/12 14:19:24;;;;;;;;;;;30.60;28.00;;;;;;5008674;28;20036;-72
2023/06/12 14:21:51;;;;;;;;;;;30.50;25.70;;;;;;5026943;28;20312;-72